Search METAR Data

METAR Data for OJAM:

OJAM 241600Z 12004KT 3000 DU NSC 31/02 Q1014 NOSIG